Monte Sarmiento — DCLH2 — position and weather

sailwx.info

Track history (hours):
 
Tides and Currents Weather Stations Pressure Air Temp Water Temp Dewpoint Dewpoint Depression Visibility Wind Speed Wind Dir Waves Ship Positions

Monte Sarmiento

Last reported at 2017-Nov-24 14:33 UTC. Time now 2017-Nov-24 20:53 UTC.
Position N 19°13' W 095°59'.

Length 272 m; beam 40 m; draft 12.5 m.

Type: Cargo ship. MMSI: 211738000.

Date/timePositionNaut miles runAvg speedWind from/ knotsBaromVisibWave heightAir tempDewpointWater temp
2017-Nov-24 14:33N 19°13' W 095°59'117.5
2017-Nov-24 14:29N 19°12' W 096°00'510.7
2017-Nov-24 14:00N 19°12' W 096°06'2 4.8
2017-Nov-24 13:30N 19°13' W 096°08'0 0.1
2017-Nov-24 13:00N 19°13' W 096°08'0 0.0
2017-Nov-24 12:25N 19°13' W 096°08'0 0.0
2017-Nov-24 11:55N 19°13' W 096°08'0 0.0
2017-Nov-24 11:25N 19°13' W 096°08'0 0.0
2017-Nov-24 10:49N 19°13' W 096°08'0 0.0
2017-Nov-24 10:25N 19°13' W 096°08'0 0.0
2017-Nov-24 09:55N 19°13' W 096°08'0 0.0
2017-Nov-24 09:25N 19°13' W 096°08'0 0.0
2017-Nov-24 08:55N 19°13' W 096°08'0 0.0
2017-Nov-24 08:25N 19°13' W 096°08'0 0.0
2017-Nov-24 07:55N 19°13' W 096°08'0 0.0
2017-Nov-24 07:25N 19°13' W 096°08'0 0.0
2017-Nov-24 06:55N 19°13' W 096°08'0 0.0
2017-Nov-24 06:19N 19°13' W 096°08'0 0.0
2017-Nov-24 05:55N 19°13' W 096°08'0 0.0
2017-Nov-24 05:25N 19°13' W 096°08'0 0.0
2017-Nov-24 04:55N 19°13' W 096°08'0 0.0
2017-Nov-24 04:29N 19°13' W 096°08'0 0.0
2017-Nov-24 04:00N 19°13' W 096°08'0 0.0
2017-Nov-24 03:30N 19°13' W 096°08'0 0.0
2017-Nov-24 03:00N 19°13' W 096°08'0 0.0
2017-Nov-24 02:30N 19°13' W 096°08'0 0.0
2017-Nov-24 02:00N 19°13' W 096°08'0 0.0
2017-Nov-24 01:30N 19°13' W 096°08'0 0.0
2017-Nov-24 01:00N 19°13' W 096°08'0 0.0
2017-Nov-24 00:30N 19°13' W 096°08'0 0.0
2017-Nov-24 00:00N 19°13' W 096°08'0 0.0
2017-Nov-23 23:30N 19°13' W 096°08'0 0.0
2017-Nov-23 23:00N 19°13' W 096°08'0 0.0
2017-Nov-23 22:30N 19°13' W 096°08'0 0.0
2017-Nov-23 22:00N 19°13' W 096°08'0 0.0
2017-Nov-23 21:30N 19°13' W 096°08'0 0.0
2017-Nov-23 21:00N 19°13' W 096°08'0 0.0
2017-Nov-23 20:30N 19°13' W 096°08'0 0.3
2017-Nov-23 20:00N 19°13' W 096°08'3 6.2
2017-Nov-23 19:30N 19°12' W 096°05'4 8.2
2017-Nov-23 19:00N 19°13' W 096°01'7510.7
2017-Nov-23 12:00N 19°54' W 094°54'20917.4 350 / 241018.1 5.4 21.515.825.0
2017-Nov-23 00:00N 22°18' W 092°12'19816.5 340 / 71013.610.8 24.517.527.0
2017-Nov-22 12:00N 23°00' W 088°42'79316.2 180 / 81011.910.8 24.918.627.0
2017-Nov-20 11:00N 12°24' W 080°24'191 5.3 360 / 101009.410.8 27.921.229.0
2017-Nov-18 23:00N 09°54' W 078°24'173 7.1 040 / 121007.910.8 28.121.429.0
2017-Nov-17 22:29N 10°23' W 075°31'0 0.0
2017-Nov-17 21:59N 10°23' W 075°31'0 0.0
2017-Nov-17 21:29N 10°23' W 075°31'0 0.0
2017-Nov-17 20:53N 10°23' W 075°31'0 0.0
2017-Nov-17 20:29N 10°23' W 075°31'0 0.0
2017-Nov-17 20:00N 10°23' W 075°31'0 0.0
2017-Nov-17 19:30N 10°23' W 075°31'0 0.0
2017-Nov-17 19:00N 10°23' W 075°31'0 0.0
2017-Nov-17 18:30N 10°23' W 075°31'0 0.0
2017-Nov-17 18:00N 10°23' W 075°31'0 0.0
2017-Nov-17 17:30N 10°23' W 075°31'0 0.0
2017-Nov-17 17:00N 10°23' W 075°31'0 0.0
2017-Nov-17 16:30N 10°23' W 075°31'0 0.0
2017-Nov-17 16:00N 10°23' W 075°31'0 0.0
2017-Nov-17 15:30N 10°23' W 075°31'0 0.0
2017-Nov-17 15:00N 10°23' W 075°31'0 0.0
2017-Nov-17 14:30N 10°23' W 075°31'0 0.0
2017-Nov-17 14:00N 10°23' W 075°31'0 0.0
2017-Nov-17 13:30N 10°23' W 075°31'0 0.2
2017-Nov-17 13:00N 10°23' W 075°31'2 3.5
2017-Nov-17 12:30N 10°21' W 075°32'5 9.6
2017-Nov-17 12:00N 10°19' W 075°36'3 6.8
2017-Nov-17 11:30N 10°22' W 075°37'510.6
2017-Nov-17 11:00N 10°27' W 075°37'611.5
2017-Nov-17 10:30N 10°33' W 075°35'815.5
2017-Nov-17 10:00N 10°40' W 075°33'815.2
2017-Nov-17 09:30N 10°47' W 075°30'915.2
2017-Nov-17 08:54N 10°53' W 075°22'31714.5
2017-Nov-16 11:00N 12°42' W 070°18'38416.0 1010.410.8 27.624.028.0
2017-Nov-15 11:00N 11°54' W 063°48'19216.0 110 / 121010.510.8 28.123.728.0
2017-Nov-14 23:00N 10°54' W 060°42'   090 / 111009.610.8 27.722.028.0
Track history (hours):
 
Tides and Currents Weather Stations Pressure Air Temp Water Temp Dewpoint Dewpoint Depression Visibility Wind Speed Wind Dir Waves Ship Positions

Monte Sarmiento

Last reported at 2017-Nov-24 14:33 UTC. Time now 2017-Nov-24 20:53 UTC.
Position N 19°13' W 095°59'.

Length 272 m; beam 40 m; draft 12.5 m.

Type: Cargo ship. MMSI: 211738000.

Date/timePositionNaut miles runAvg speedWind from/ knotsBaromVisibWave heightAir tempDewpointWater temp
2017-Nov-24 14:33N 19°13' W 095°59'117.5
2017-Nov-24 14:29N 19°12' W 096°00'510.7
2017-Nov-24 14:00N 19°12' W 096°06'2 4.8
2017-Nov-24 13:30N 19°13' W 096°08'0 0.1
2017-Nov-24 13:00N 19°13' W 096°08'0 0.0
2017-Nov-24 12:25N 19°13' W 096°08'0 0.0
2017-Nov-24 11:55N 19°13' W 096°08'0 0.0
2017-Nov-24 11:25N 19°13' W 096°08'0 0.0
2017-Nov-24 10:49N 19°13' W 096°08'0 0.0
2017-Nov-24 10:25N 19°13' W 096°08'0 0.0
2017-Nov-24 09:55N 19°13' W 096°08'0 0.0
2017-Nov-24 09:25N 19°13' W 096°08'0 0.0
2017-Nov-24 08:55N 19°13' W 096°08'0 0.0
2017-Nov-24 08:25N 19°13' W 096°08'0 0.0
2017-Nov-24 07:55N 19°13' W 096°08'0 0.0
2017-Nov-24 07:25N 19°13' W 096°08'0 0.0
2017-Nov-24 06:55N 19°13' W 096°08'0 0.0
2017-Nov-24 06:19N 19°13' W 096°08'0 0.0
2017-Nov-24 05:55N 19°13' W 096°08'0 0.0
2017-Nov-24 05:25N 19°13' W 096°08'0 0.0
2017-Nov-24 04:55N 19°13' W 096°08'0 0.0
2017-Nov-24 04:29N 19°13' W 096°08'0 0.0
2017-Nov-24 04:00N 19°13' W 096°08'0 0.0
2017-Nov-24 03:30N 19°13' W 096°08'0 0.0
2017-Nov-24 03:00N 19°13' W 096°08'0 0.0
2017-Nov-24 02:30N 19°13' W 096°08'0 0.0
2017-Nov-24 02:00N 19°13' W 096°08'0 0.0
2017-Nov-24 01:30N 19°13' W 096°08'0 0.0
2017-Nov-24 01:00N 19°13' W 096°08'0 0.0
2017-Nov-24 00:30N 19°13' W 096°08'0 0.0
2017-Nov-24 00:00N 19°13' W 096°08'0 0.0
2017-Nov-23 23:30N 19°13' W 096°08'0 0.0
2017-Nov-23 23:00N 19°13' W 096°08'0 0.0
2017-Nov-23 22:30N 19°13' W 096°08'0 0.0
2017-Nov-23 22:00N 19°13' W 096°08'0 0.0
2017-Nov-23 21:30N 19°13' W 096°08'0 0.0
2017-Nov-23 21:00N 19°13' W 096°08'0 0.0
2017-Nov-23 20:30N 19°13' W 096°08'0 0.3
2017-Nov-23 20:00N 19°13' W 096°08'3 6.2
2017-Nov-23 19:30N 19°12' W 096°05'4 8.2
2017-Nov-23 19:00N 19°13' W 096°01'7510.7
2017-Nov-23 12:00N 19°54' W 094°54'20917.4 350 / 241018.1 5.4 21.515.825.0
2017-Nov-23 00:00N 22°18' W 092°12'19816.5 340 / 71013.610.8 24.517.527.0
2017-Nov-22 12:00N 23°00' W 088°42'79316.2 180 / 81011.910.8 24.918.627.0
2017-Nov-20 11:00N 12°24' W 080°24'191 5.3 360 / 101009.410.8 27.921.229.0
2017-Nov-18 23:00N 09°54' W 078°24'173 7.1 040 / 121007.910.8 28.121.429.0
2017-Nov-17 22:29N 10°23' W 075°31'0 0.0
2017-Nov-17 21:59N 10°23' W 075°31'0 0.0
2017-Nov-17 21:29N 10°23' W 075°31'0 0.0
2017-Nov-17 20:53N 10°23' W 075°31'0 0.0
2017-Nov-17 20:29N 10°23' W 075°31'0 0.0
2017-Nov-17 20:00N 10°23' W 075°31'0 0.0
2017-Nov-17 19:30N 10°23' W 075°31'0 0.0
2017-Nov-17 19:00N 10°23' W 075°31'0 0.0
2017-Nov-17 18:30N 10°23' W 075°31'0 0.0
2017-Nov-17 18:00N 10°23' W 075°31'0 0.0
2017-Nov-17 17:30N 10°23' W 075°31'0 0.0
2017-Nov-17 17:00N 10°23' W 075°31'0 0.0
2017-Nov-17 16:30N 10°23' W 075°31'0 0.0
2017-Nov-17 16:00N 10°23' W 075°31'0 0.0
2017-Nov-17 15:30N 10°23' W 075°31'0 0.0
2017-Nov-17 15:00N 10°23' W 075°31'0 0.0
2017-Nov-17 14:30N 10°23' W 075°31'0 0.0
2017-Nov-17 14:00N 10°23' W 075°31'0 0.0
2017-Nov-17 13:30N 10°23' W 075°31'0 0.2
2017-Nov-17 13:00N 10°23' W 075°31'2 3.5
2017-Nov-17 12:30N 10°21' W 075°32'5 9.6
2017-Nov-17 12:00N 10°19' W 075°36'3 6.8
2017-Nov-17 11:30N 10°22' W 075°37'510.6
2017-Nov-17 11:00N 10°27' W 075°37'611.5
2017-Nov-17 10:30N 10°33' W 075°35'815.5
2017-Nov-17 10:00N 10°40' W 075°33'815.2
2017-Nov-17 09:30N 10°47' W 075°30'915.2
2017-Nov-17 08:54N 10°53' W 075°22'31714.5
2017-Nov-16 11:00N 12°42' W 070°18'38416.0 1010.410.8 27.624.028.0
2017-Nov-15 11:00N 11°54' W 063°48'19216.0 110 / 121010.510.8 28.123.728.0
2017-Nov-14 23:00N 10°54' W 060°42'   090 / 111009.610.8 27.722.028.0

Dump ship's entire track history